createdAt,value
2022-07-31T00:01:21.696Z,16.20
2022-07-31T00:03:50.243Z,16.20
2022-07-31T00:06:19.570Z,16.10
2022-07-31T00:08:48.001Z,16.10
2022-07-31T00:11:17.703Z,16.20
2022-07-31T00:13:57.272Z,16.20
2022-07-31T00:16:27.606Z,16.20
2022-07-31T00:18:56.409Z,16.10
2022-07-31T00:21:24.680Z,16.00
2022-07-31T00:23:53.446Z,15.90
2022-07-31T00:26:23.082Z,15.80
2022-07-31T00:28:51.281Z,15.80
2022-07-31T00:31:20.138Z,15.80
2022-07-31T00:33:48.295Z,15.70
2022-07-31T00:36:16.515Z,15.60
2022-07-31T00:38:45.019Z,15.50
2022-07-31T00:41:13.359Z,15.50
2022-07-31T00:43:42.918Z,15.50
2022-07-31T00:46:14.470Z,15.50
2022-07-31T00:48:43.396Z,15.50
2022-07-31T00:51:12.675Z,15.40
2022-07-31T00:53:40.882Z,15.40
2022-07-31T00:56:09.474Z,15.50
2022-07-31T00:58:38.038Z,15.60
2022-07-31T01:01:07.791Z,15.60
2022-07-31T01:03:36.120Z,15.60
2022-07-31T01:06:05.243Z,15.50
2022-07-31T01:08:33.511Z,15.50
2022-07-31T01:11:07.352Z,15.50
2022-07-31T01:13:40.557Z,15.40
2022-07-31T01:16:12.667Z,15.30
2022-07-31T01:18:41.909Z,15.20
2022-07-31T01:21:16.794Z,15.10
2022-07-31T01:24:11.723Z,15.10
2022-07-31T01:26:49.561Z,15.10
2022-07-31T01:29:25.494Z,15.10
2022-07-31T01:32:00.274Z,15.00
2022-07-31T01:34:35.209Z,14.80
2022-07-31T01:37:10.575Z,14.70
2022-07-31T01:39:44.205Z,14.60
2022-07-31T01:42:17.642Z,14.60
2022-07-31T01:44:51.771Z,14.50
2022-07-31T01:47:22.838Z,14.50
2022-07-31T01:49:52.590Z,14.40
2022-07-31T01:52:21.650Z,14.50
2022-07-31T01:54:52.209Z,14.40
2022-07-31T01:57:23.384Z,14.40
2022-07-31T01:59:55.700Z,14.30
2022-07-31T02:02:26.504Z,14.20
2022-07-31T02:04:55.929Z,14.20
2022-07-31T02:07:25.720Z,14.10
2022-07-31T02:09:58.808Z,14.10
2022-07-31T02:12:32.192Z,14.00
2022-07-31T02:15:05.523Z,14.00
2022-07-31T02:17:35.654Z,13.90
2022-07-31T02:20:06.131Z,13.80
2022-07-31T02:22:35.343Z,13.80
2022-07-31T02:25:05.097Z,13.70
2022-07-31T02:27:57.592Z,13.70
2022-07-31T02:30:25.229Z,13.60
2022-07-31T02:32:54.552Z,13.60
2022-07-31T02:35:23.555Z,13.70
2022-07-31T02:37:54.237Z,13.80
2022-07-31T02:40:25.384Z,13.90
2022-07-31T02:42:54.981Z,13.80
2022-07-31T02:45:25.524Z,13.80
2022-07-31T02:47:54.382Z,13.80
2022-07-31T02:50:23.489Z,13.80
2022-07-31T02:52:52.236Z,13.80
2022-07-31T02:55:21.100Z,13.80
2022-07-31T02:57:49.320Z,13.80
2022-07-31T03:00:23.191Z,13.70
2022-07-31T03:02:53.992Z,13.70
2022-07-31T03:05:23.008Z,13.70
2022-07-31T03:07:51.604Z,13.70
2022-07-31T03:10:20.098Z,13.70
2022-07-31T03:12:51.692Z,13.60
2022-07-31T03:15:21.936Z,13.70
2022-07-31T03:17:53.317Z,13.80
2022-07-31T03:20:22.033Z,14.00
2022-07-31T03:22:50.978Z,14.20
2022-07-31T03:25:21.406Z,14.30
2022-07-31T03:27:55.805Z,14.40
2022-07-31T03:30:26.192Z,14.30
2022-07-31T03:32:57.327Z,14.30
2022-07-31T03:35:27.263Z,14.30
2022-07-31T03:37:55.543Z,14.30
2022-07-31T03:40:23.980Z,14.30
2022-07-31T03:42:53.356Z,14.30
2022-07-31T03:45:22.354Z,14.40
2022-07-31T03:47:51.194Z,14.40
2022-07-31T03:50:21.194Z,14.50
2022-07-31T03:52:49.709Z,14.40
2022-07-31T03:55:18.695Z,14.30
2022-07-31T03:57:48.106Z,14.30
2022-07-31T04:00:20.610Z,14.30
2022-07-31T04:02:48.917Z,14.30
2022-07-31T04:05:18.597Z,14.20
2022-07-31T04:07:48.131Z,14.20
2022-07-31T04:10:20.134Z,14.20
2022-07-31T04:12:48.646Z,14.20
2022-07-31T04:15:19.182Z,14.20
2022-07-31T04:17:47.717Z,14.30
2022-07-31T04:20:17.572Z,14.40
2022-07-31T04:22:47.155Z,14.50
2022-07-31T04:25:18.844Z,14.70
2022-07-31T04:27:48.156Z,14.90
2022-07-31T04:30:18.057Z,15.00
2022-07-31T04:32:46.653Z,15.20
2022-07-31T04:35:14.862Z,15.20
2022-07-31T04:37:48.047Z,15.30
2022-07-31T04:40:18.480Z,15.40
2022-07-31T04:42:46.696Z,15.40
2022-07-31T04:45:14.914Z,15.30
2022-07-31T04:47:43.668Z,15.30
2022-07-31T04:50:11.925Z,15.30
2022-07-31T04:52:40.554Z,15.30
2022-07-31T04:55:09.953Z,15.30
2022-07-31T04:57:39.694Z,15.40
2022-07-31T05:00:10.556Z,15.40
2022-07-31T05:02:38.820Z,15.50
2022-07-31T05:05:07.759Z,15.60
2022-07-31T05:07:36.506Z,15.70
2022-07-31T05:10:05.649Z,15.80
2022-07-31T05:12:33.817Z,15.80
2022-07-31T05:15:03.528Z,16.00
2022-07-31T05:17:31.999Z,16.10
2022-07-31T05:20:00.207Z,16.20
2022-07-31T05:22:28.837Z,16.30
2022-07-31T05:24:57.394Z,16.30
2022-07-31T05:27:25.592Z,16.40
2022-07-31T05:30:00.601Z,16.40
2022-07-31T05:32:30.298Z,16.40
2022-07-31T05:34:58.446Z,16.40
2022-07-31T05:37:26.989Z,16.50
2022-07-31T05:39:55.525Z,16.50
2022-07-31T05:42:23.819Z,16.60
2022-07-31T05:44:52.169Z,16.70
2022-07-31T05:47:21.561Z,16.70
2022-07-31T05:49:51.539Z,16.80
2022-07-31T05:52:24.157Z,17.00
2022-07-31T05:54:52.925Z,17.10
2022-07-31T05:57:33.308Z,17.30
2022-07-31T06:00:03.849Z,17.40
2022-07-31T06:02:32.489Z,17.50
2022-07-31T06:05:02.554Z,17.40
2022-07-31T06:07:30.750Z,17.50
2022-07-31T06:09:58.980Z,17.60
2022-07-31T06:12:27.678Z,17.70
2022-07-31T06:14:56.191Z,17.80
2022-07-31T06:17:24.461Z,17.90
2022-07-31T06:20:11.070Z,18.00
2022-07-31T06:22:40.209Z,18.20
2022-07-31T06:25:09.910Z,18.20
2022-07-31T06:27:40.332Z,18.20
2022-07-31T06:30:10.671Z,18.40
2022-07-31T06:32:39.274Z,18.40
2022-07-31T06:35:10.669Z,18.50
2022-07-31T06:37:39.017Z,18.60
2022-07-31T06:40:08.184Z,18.70
2022-07-31T06:42:38.504Z,18.90
2022-07-31T06:45:07.485Z,19.00
2022-07-31T06:47:36.005Z,19.10
2022-07-31T06:50:05.750Z,19.20
2022-07-31T06:52:35.664Z,19.30
2022-07-31T06:55:03.928Z,19.30
2022-07-31T06:57:32.445Z,19.50
2022-07-31T07:00:05.521Z,19.60
2022-07-31T07:02:36.074Z,19.80
2022-07-31T07:05:06.930Z,20.00
2022-07-31T07:07:38.658Z,20.10
2022-07-31T07:10:07.847Z,20.20
2022-07-31T07:12:36.165Z,20.40
2022-07-31T07:15:04.676Z,20.40
2022-07-31T07:17:33.009Z,20.50
2022-07-31T07:20:01.318Z,20.70
2022-07-31T07:22:31.740Z,20.80
2022-07-31T07:25:02.166Z,21.00
2022-07-31T07:27:30.751Z,21.10
2022-07-31T07:30:00.550Z,21.40
2022-07-31T07:32:28.892Z,21.50
2022-07-31T07:35:00.175Z,21.80
2022-07-31T07:37:30.086Z,22.20
2022-07-31T07:40:03.505Z,22.60
2022-07-31T07:42:33.577Z,22.90
2022-07-31T07:45:02.814Z,23.10
2022-07-31T07:48:05.574Z,23.40
2022-07-31T07:50:29.041Z,23.70
2022-07-31T07:52:57.957Z,23.80
2022-07-31T07:55:27.118Z,24.10
2022-07-31T07:57:56.898Z,24.20
2022-07-31T08:00:26.142Z,24.00
2022-07-31T08:03:46.803Z,23.80
2022-07-31T08:05:42.790Z,23.90
2022-07-31T08:08:11.360Z,24.20
2022-07-31T08:10:41.163Z,24.70
2022-07-31T08:13:10.902Z,24.80
2022-07-31T08:15:39.421Z,24.80
2022-07-31T08:18:08.167Z,24.90
2022-07-31T08:20:38.707Z,24.90
2022-07-31T08:23:07.494Z,25.00
2022-07-31T08:25:36.154Z,25.00
2022-07-31T08:28:05.511Z,25.60
2022-07-31T08:30:35.826Z,25.90
2022-07-31T08:33:04.102Z,26.20
2022-07-31T08:35:32.825Z,26.40
2022-07-31T08:38:04.090Z,26.30
2022-07-31T08:40:35.949Z,26.70
2022-07-31T08:43:59.630Z,26.40
2022-07-31T08:46:03.901Z,26.00
2022-07-31T08:48:34.352Z,25.70
2022-07-31T08:51:04.554Z,25.40
2022-07-31T08:53:37.184Z,25.70
2022-07-31T08:56:06.495Z,25.70
2022-07-31T08:58:39.342Z,25.60
2022-07-31T09:01:12.449Z,25.70
2022-07-31T09:03:41.674Z,25.80
2022-07-31T09:06:09.898Z,26.10
2022-07-31T09:08:39.344Z,26.90
2022-07-31T09:11:09.536Z,27.10
2022-07-31T09:13:38.400Z,27.30
2022-07-31T09:16:07.485Z,26.70
2022-07-31T09:18:37.087Z,26.10
2022-07-31T09:21:07.374Z,25.50
2022-07-31T09:23:44.804Z,25.50
2022-07-31T09:26:13.127Z,25.20
2022-07-31T09:28:43.546Z,25.10
2022-07-31T09:31:13.982Z,25.00
2022-07-31T09:33:47.070Z,25.20
2022-07-31T09:36:16.382Z,25.40
2022-07-31T09:38:45.409Z,25.50
2022-07-31T09:41:58.145Z,25.60
2022-07-31T09:44:11.817Z,25.60
2022-07-31T09:46:41.528Z,25.70
2022-07-31T09:49:11.440Z,25.50
2022-07-31T09:51:42.038Z,25.50
2022-07-31T09:54:22.151Z,26.00
2022-07-31T09:56:50.965Z,26.20
2022-07-31T09:59:21.358Z,26.20
2022-07-31T10:01:50.526Z,25.90
2022-07-31T10:04:21.651Z,25.80
2022-07-31T10:06:52.686Z,25.70
2022-07-31T10:09:22.816Z,25.80
2022-07-31T10:11:53.045Z,25.70
2022-07-31T10:14:25.457Z,25.50
2022-07-31T10:16:57.505Z,25.50
2022-07-31T10:19:33.197Z,25.70
2022-07-31T10:22:05.352Z,25.70
2022-07-31T10:24:35.064Z,25.50
2022-07-31T10:27:09.164Z,25.40
2022-07-31T10:29:40.056Z,25.30
2022-07-31T10:32:08.897Z,25.20
2022-07-31T10:34:39.217Z,25.20
2022-07-31T10:37:14.457Z,25.30
2022-07-31T10:39:51.003Z,25.70
2022-07-31T10:42:30.584Z,25.90
2022-07-31T10:45:06.628Z,26.90
2022-07-31T10:47:34.853Z,27.30
2022-07-31T10:50:06.781Z,27.00
2022-07-31T10:52:37.278Z,26.60
2022-07-31T10:55:17.981Z,26.20
2022-07-31T10:57:56.875Z,25.80
2022-07-31T11:00:32.374Z,25.80
2022-07-31T11:03:00.633Z,25.70
2022-07-31T11:05:30.187Z,25.80
2022-07-31T11:08:05.510Z,26.00
2022-07-31T11:10:34.512Z,26.20
2022-07-31T11:13:04.434Z,26.70
2022-07-31T11:15:33.731Z,27.10
2022-07-31T11:18:22.148Z,27.20
2022-07-31T11:21:13.553Z,26.70
2022-07-31T11:23:55.868Z,26.60
2022-07-31T11:26:32.910Z,26.40
2022-07-31T11:29:58.735Z,26.70
2022-07-31T11:32:01.768Z,27.00
2022-07-31T11:34:30.108Z,26.90
2022-07-31T11:36:59.804Z,26.40
2022-07-31T11:39:33.405Z,26.00
2022-07-31T11:42:07.612Z,25.80
2022-07-31T11:44:36.538Z,25.70
2022-07-31T11:48:10.052Z,25.70
2022-07-31T11:50:02.345Z,25.80
2022-07-31T11:52:37.238Z,25.80
2022-07-31T11:55:09.726Z,25.70
2022-07-31T11:57:51.858Z,25.80
2022-07-31T12:00:29.733Z,25.60
2022-07-31T12:02:59.018Z,25.70
2022-07-31T12:05:38.000Z,25.60
2022-07-31T12:08:09.299Z,25.50
2022-07-31T12:10:38.534Z,25.40
2022-07-31T12:13:15.464Z,25.40
2022-07-31T12:15:55.814Z,25.40
2022-07-31T12:18:26.582Z,25.20
2022-07-31T12:20:57.240Z,25.00
2022-07-31T12:23:38.700Z,24.70
2022-07-31T12:26:13.541Z,25.00
2022-07-31T12:28:42.047Z,25.10
2022-07-31T12:31:10.249Z,25.20
2022-07-31T12:33:43.179Z,25.20
2022-07-31T12:36:25.194Z,24.90
2022-07-31T12:39:02.431Z,25.00
2022-07-31T12:41:31.686Z,25.10
2022-07-31T12:44:13.343Z,25.00
2022-07-31T12:46:42.933Z,24.80
2022-07-31T12:49:11.324Z,24.70
2022-07-31T12:51:46.159Z,25.00
2022-07-31T12:54:25.259Z,24.60
2022-07-31T12:56:53.635Z,24.60
2022-07-31T12:59:28.197Z,24.20
2022-07-31T13:01:57.087Z,23.90
2022-07-31T13:04:26.285Z,23.90
2022-07-31T13:06:54.533Z,23.80
2022-07-31T13:09:25.537Z,23.70
2022-07-31T13:11:57.783Z,23.70
2022-07-31T13:14:26.713Z,23.70
2022-07-31T13:16:57.362Z,23.70
2022-07-31T13:19:26.073Z,23.60
2022-07-31T13:21:56.886Z,23.70
2022-07-31T13:24:27.169Z,23.70
2022-07-31T13:26:58.960Z,23.50
2022-07-31T13:29:27.478Z,23.50
2022-07-31T13:31:55.777Z,23.50
2022-07-31T13:34:24.234Z,23.30
2022-07-31T13:36:52.527Z,23.30
2022-07-31T13:39:20.891Z,23.20
2022-07-31T13:41:50.804Z,23.30
2022-07-31T13:44:19.442Z,23.20
2022-07-31T13:46:47.742Z,23.30
2022-07-31T13:49:16.139Z,23.30
2022-07-31T13:51:44.447Z,23.60
2022-07-31T13:54:12.961Z,23.80
2022-07-31T13:56:43.659Z,23.80
2022-07-31T13:59:17.508Z,23.50
2022-07-31T14:02:04.134Z,23.50
2022-07-31T14:04:38.254Z,23.50
2022-07-31T14:07:07.562Z,23.50
2022-07-31T14:09:37.620Z,23.40
2022-07-31T14:12:06.714Z,23.40
2022-07-31T14:14:37.156Z,23.30
2022-07-31T14:17:05.391Z,23.30
2022-07-31T14:19:44.217Z,23.40
2022-07-31T14:22:14.395Z,23.60
2022-07-31T14:24:50.821Z,23.70
2022-07-31T14:27:21.566Z,23.60
2022-07-31T14:29:51.130Z,23.50
2022-07-31T14:32:19.720Z,23.50
2022-07-31T14:34:48.138Z,23.50
2022-07-31T14:37:16.495Z,23.40
2022-07-31T14:39:44.659Z,23.30
2022-07-31T14:42:13.495Z,23.30
2022-07-31T14:44:42.494Z,23.30
2022-07-31T14:47:12.643Z,23.30
2022-07-31T14:50:07.046Z,23.40
2022-07-31T14:52:30.080Z,23.30
2022-07-31T14:55:00.000Z,23.20
2022-07-31T14:57:28.535Z,23.20
2022-07-31T14:59:57.086Z,23.20
2022-07-31T15:02:27.484Z,23.20
2022-07-31T15:04:55.696Z,23.20
2022-07-31T15:07:45.860Z,23.30
2022-07-31T15:10:13.563Z,23.40
2022-07-31T15:12:42.177Z,23.50
2022-07-31T15:15:11.271Z,23.50
2022-07-31T15:17:41.209Z,23.40
2022-07-31T15:20:10.890Z,23.60
2022-07-31T15:22:39.117Z,23.70
2022-07-31T15:25:08.804Z,23.80
2022-07-31T15:27:36.995Z,23.60
2022-07-31T15:30:07.725Z,23.60
2022-07-31T15:32:38.299Z,23.60
2022-07-31T15:35:10.156Z,23.50
2022-07-31T15:37:39.673Z,23.30
2022-07-31T15:40:10.301Z,23.10
2022-07-31T15:42:42.104Z,23.10
2022-07-31T15:45:12.448Z,23.00
2022-07-31T15:47:40.954Z,22.90
2022-07-31T15:50:12.871Z,22.80
2022-07-31T15:52:41.505Z,22.80
2022-07-31T15:55:10.736Z,22.80
2022-07-31T15:57:39.042Z,22.80
2022-07-31T16:00:09.525Z,22.80
2022-07-31T16:02:38.565Z,22.90
2022-07-31T16:05:11.495Z,22.90
2022-07-31T16:08:30.449Z,23.10
2022-07-31T16:10:39.126Z,23.00
2022-07-31T16:13:07.510Z,23.10
2022-07-31T16:15:35.838Z,23.20
2022-07-31T16:18:05.278Z,23.10
2022-07-31T16:20:33.585Z,23.00
2022-07-31T16:23:03.226Z,23.00
2022-07-31T16:25:34.669Z,22.90
2022-07-31T16:28:03.664Z,22.90
2022-07-31T16:30:32.134Z,22.80
2022-07-31T16:33:00.393Z,22.70
2022-07-31T16:35:28.589Z,22.60
2022-07-31T16:37:57.398Z,22.50
2022-07-31T16:40:31.796Z,22.40
2022-07-31T16:43:03.634Z,22.40
2022-07-31T16:45:50.563Z,22.30
2022-07-31T16:48:26.334Z,22.30
2022-07-31T16:50:55.319Z,22.30
2022-07-31T16:54:11.199Z,22.30
2022-07-31T16:56:14.814Z,22.20
2022-07-31T16:58:44.172Z,22.10
2022-07-31T17:01:59.308Z,22.00
2022-07-31T17:04:03.882Z,21.90
2022-07-31T17:06:36.757Z,21.80
2022-07-31T17:09:17.047Z,21.90
2022-07-31T17:11:49.496Z,21.90
2022-07-31T17:14:19.294Z,21.80
2022-07-31T17:16:49.188Z,21.70
2022-07-31T17:19:42.963Z,21.60
2022-07-31T17:22:11.166Z,21.50
2022-07-31T17:24:40.559Z,21.40
2022-07-31T17:27:10.830Z,21.30
2022-07-31T17:29:39.541Z,21.10
2022-07-31T17:32:11.384Z,21.00
2022-07-31T17:34:40.284Z,20.90
2022-07-31T17:37:08.939Z,20.80
2022-07-31T17:39:38.162Z,20.70
2022-07-31T17:42:06.773Z,20.70
2022-07-31T17:44:39.823Z,20.70
2022-07-31T17:47:09.327Z,20.70
2022-07-31T17:49:37.892Z,20.60
2022-07-31T17:52:06.806Z,20.50
2022-07-31T17:54:35.013Z,20.40
2022-07-31T17:57:03.848Z,20.20
2022-07-31T17:59:33.234Z,20.10
2022-07-31T18:02:04.032Z,20.00
2022-07-31T18:04:35.162Z,20.00
2022-07-31T18:07:05.210Z,19.90
2022-07-31T18:09:33.595Z,19.90
2022-07-31T18:12:02.931Z,19.80
2022-07-31T18:14:31.638Z,19.80
2022-07-31T18:17:00.537Z,19.70
2022-07-31T18:19:30.602Z,19.70
2022-07-31T18:21:58.885Z,19.70
2022-07-31T18:24:27.585Z,19.60
2022-07-31T18:26:55.935Z,19.60
2022-07-31T18:29:24.161Z,19.60
2022-07-31T18:31:52.360Z,19.60
2022-07-31T18:34:21.669Z,19.60
2022-07-31T18:36:54.749Z,19.50
2022-07-31T18:39:25.621Z,19.40
2022-07-31T18:41:53.981Z,19.40
2022-07-31T18:44:22.705Z,19.40
2022-07-31T18:46:51.519Z,19.30
2022-07-31T18:51:03.192Z,19.30
2022-07-31T18:52:11.494Z,19.30
2022-07-31T18:54:40.188Z,19.20
2022-07-31T18:57:08.889Z,19.20
2022-07-31T18:59:38.391Z,19.10
2022-07-31T19:02:08.594Z,19.10
2022-07-31T19:04:40.102Z,19.00
2022-07-31T19:07:08.750Z,19.00
2022-07-31T19:09:38.668Z,18.90
2022-07-31T19:12:08.678Z,18.90
2022-07-31T19:14:37.199Z,18.80
2022-07-31T19:17:05.565Z,18.80
2022-07-31T19:19:53.480Z,18.70
2022-07-31T19:22:25.165Z,18.70
2022-07-31T19:24:55.102Z,18.70
2022-07-31T19:27:46.725Z,18.60
2022-07-31T19:30:13.988Z,18.60
2022-07-31T19:32:42.277Z,18.60
2022-07-31T19:35:11.007Z,18.50
2022-07-31T19:37:39.534Z,18.40
2022-07-31T19:40:10.499Z,18.40
2022-07-31T19:42:39.536Z,18.40
2022-07-31T19:45:08.618Z,18.40
2022-07-31T19:47:37.712Z,18.30
2022-07-31T19:50:07.505Z,18.30
2022-07-31T19:52:35.905Z,18.30
2022-07-31T19:55:04.132Z,18.30
2022-07-31T19:57:33.664Z,18.30
2022-07-31T20:00:02.205Z,18.30
2022-07-31T20:02:30.353Z,18.20
2022-07-31T20:04:58.502Z,18.20
2022-07-31T20:07:32.745Z,18.20
2022-07-31T20:10:01.901Z,18.10
2022-07-31T20:12:30.359Z,18.10
2022-07-31T20:15:00.613Z,18.00
2022-07-31T20:17:29.346Z,18.00
2022-07-31T20:20:14.367Z,18.00
2022-07-31T20:22:43.732Z,17.90
2022-07-31T20:25:20.278Z,17.90
2022-07-31T20:27:49.652Z,17.80
2022-07-31T20:30:22.214Z,17.80
2022-07-31T20:32:51.495Z,17.70
2022-07-31T20:35:29.041Z,17.70
2022-07-31T20:38:09.087Z,17.70
2022-07-31T20:40:53.940Z,17.60
2022-07-31T20:43:25.883Z,17.70
2022-07-31T20:45:57.949Z,17.60
2022-07-31T20:48:31.734Z,17.60
2022-07-31T20:51:00.422Z,17.60
2022-07-31T20:53:29.150Z,17.60
2022-07-31T20:55:57.769Z,17.60
2022-07-31T20:58:28.339Z,17.60
2022-07-31T21:00:57.991Z,17.60
2022-07-31T21:03:26.700Z,17.60
2022-07-31T21:05:54.905Z,17.60
2022-07-31T21:08:26.886Z,17.60
2022-07-31T21:10:55.801Z,17.50
2022-07-31T21:13:29.242Z,17.60
2022-07-31T21:15:59.114Z,17.50
2022-07-31T21:18:31.503Z,17.50
2022-07-31T21:21:02.809Z,17.40
2022-07-31T21:23:31.080Z,17.40
2022-07-31T21:26:00.147Z,17.40
2022-07-31T21:28:29.311Z,17.40
2022-07-31T21:30:59.405Z,17.40
2022-07-31T21:33:29.327Z,17.30
2022-07-31T21:35:58.227Z,17.30
2022-07-31T21:38:26.766Z,17.30
2022-07-31T21:40:55.749Z,17.30
2022-07-31T21:43:24.894Z,17.20
2022-07-31T21:45:57.716Z,17.20
2022-07-31T21:48:35.689Z,17.20
2022-07-31T21:51:04.345Z,17.10
2022-07-31T21:53:32.818Z,17.10
2022-07-31T21:56:03.956Z,17.10
2022-07-31T21:58:32.141Z,17.10
2022-07-31T22:01:00.552Z,17.10
2022-07-31T22:03:28.976Z,17.10
2022-07-31T22:06:15.878Z,17.10
2022-07-31T22:08:44.392Z,17.10
2022-07-31T22:11:12.588Z,17.00
2022-07-31T22:13:40.814Z,17.10
2022-07-31T22:16:09.105Z,17.00
2022-07-31T22:18:37.780Z,17.00
2022-07-31T22:21:09.275Z,17.00
2022-07-31T22:23:38.332Z,17.00
2022-07-31T22:26:07.003Z,17.00
2022-07-31T22:28:35.639Z,17.00
2022-07-31T22:31:04.541Z,16.90
2022-07-31T22:33:32.997Z,16.90
2022-07-31T22:36:03.292Z,16.90
2022-07-31T22:38:33.646Z,16.90
2022-07-31T22:41:03.302Z,16.80
2022-07-31T22:44:13.199Z,16.90
2022-07-31T22:46:20.802Z,16.90
2022-07-31T22:48:49.629Z,16.90
2022-07-31T22:51:18.702Z,16.80
2022-07-31T22:53:50.588Z,16.80
2022-07-31T22:56:19.791Z,16.80
2022-07-31T22:58:47.975Z,16.80
2022-07-31T23:01:16.185Z,16.80
2022-07-31T23:03:44.886Z,16.70
2022-07-31T23:06:30.597Z,16.70
2022-07-31T23:09:02.993Z,16.70
2022-07-31T23:11:31.306Z,16.60
2022-07-31T23:13:59.752Z,16.60
2022-07-31T23:16:28.547Z,16.50
2022-07-31T23:18:56.890Z,16.50
2022-07-31T23:21:25.417Z,16.50
2022-07-31T23:23:54.288Z,16.50
2022-07-31T23:26:26.246Z,16.50
2022-07-31T23:28:55.647Z,16.50
2022-07-31T23:31:24.177Z,16.50
2022-07-31T23:33:53.372Z,16.50
2022-07-31T23:36:22.582Z,16.50
2022-07-31T23:38:51.167Z,16.50
2022-07-31T23:41:40.382Z,16.50
2022-07-31T23:44:10.440Z,16.50
2022-07-31T23:46:40.332Z,16.40
2022-07-31T23:49:09.797Z,16.40
2022-07-31T23:51:38.194Z,16.30
2022-07-31T23:54:06.499Z,16.20
2022-07-31T23:56:35.078Z,16.20
2022-07-31T23:59:03.635Z,16.30
